sensor_id;sensor_type;location;lat;lon;timestamp;temperature;humidity
45044;DHT22;30784;48.490;9.688;2023-04-01T00:00:52;10.00;61.30
45044;DHT22;30784;48.490;9.688;2023-04-01T00:03:19;10.00;61.10
45044;DHT22;30784;48.490;9.688;2023-04-01T00:05:45;10.00;61.10
45044;DHT22;30784;48.490;9.688;2023-04-01T00:08:10;10.00;61.30
45044;DHT22;30784;48.490;9.688;2023-04-01T00:10:36;10.00;61.30
45044;DHT22;30784;48.490;9.688;2023-04-01T00:13:02;10.00;61.10
45044;DHT22;30784;48.490;9.688;2023-04-01T00:15:28;9.90;61.30
45044;DHT22;30784;48.490;9.688;2023-04-01T00:17:53;10.00;61.30
45044;DHT22;30784;48.490;9.688;2023-04-01T00:20:20;10.00;61.40
45044;DHT22;30784;48.490;9.688;2023-04-01T00:22:45;10.00;61.40
45044;DHT22;30784;48.490;9.688;2023-04-01T00:25:11;10.00;61.40
45044;DHT22;30784;48.490;9.688;2023-04-01T00:27:37;10.00;61.50
45044;DHT22;30784;48.490;9.688;2023-04-01T00:30:03;10.00;61.40
45044;DHT22;30784;48.490;9.688;2023-04-01T00:32:29;9.90;61.40
45044;DHT22;30784;48.490;9.688;2023-04-01T00:34:55;10.00;61.50
45044;DHT22;30784;48.490;9.688;2023-04-01T00:37:21;9.90;61.40
45044;DHT22;30784;48.490;9.688;2023-04-01T00:39:48;9.90;61.40
45044;DHT22;30784;48.490;9.688;2023-04-01T00:42:13;9.90;61.60
45044;DHT22;30784;48.490;9.688;2023-04-01T00:44:39;9.90;61.60
45044;DHT22;30784;48.490;9.688;2023-04-01T00:47:05;9.90;61.70
45044;DHT22;30784;48.490;9.688;2023-04-01T00:49:34;9.90;61.60
45044;DHT22;30784;48.490;9.688;2023-04-01T00:52:03;9.90;61.60
45044;DHT22;30784;48.490;9.688;2023-04-01T00:54:30;9.90;61.60
45044;DHT22;30784;48.490;9.688;2023-04-01T00:57:00;9.90;61.80
45044;DHT22;30784;48.490;9.688;2023-04-01T00:59:30;9.80;61.70
45044;DHT22;30784;48.490;9.688;2023-04-01T01:01:57;9.90;61.80
45044;DHT22;30784;48.490;9.688;2023-04-01T01:04:31;9.80;61.40
45044;DHT22;30784;48.490;9.688;2023-04-01T01:10:15;9.80;62.20
45044;DHT22;30784;48.490;9.688;2023-04-01T01:15:30;9.80;62.00
45044;DHT22;30784;48.490;9.688;2023-04-01T01:18:19;9.80;61.90
45044;DHT22;30784;48.490;9.688;2023-04-01T01:24:17;9.80;62.20
45044;DHT22;30784;48.490;9.688;2023-04-01T01:35:05;9.70;62.10
45044;DHT22;30784;48.490;9.688;2023-04-01T01:37:33;9.70;62.00
45044;DHT22;30784;48.490;9.688;2023-04-01T01:40:03;9.70;62.10
45044;DHT22;30784;48.490;9.688;2023-04-01T01:42:31;9.70;62.00
45044;DHT22;30784;48.490;9.688;2023-04-01T01:44:59;9.70;62.10
45044;DHT22;30784;48.490;9.688;2023-04-01T01:47:26;9.70;62.20
45044;DHT22;30784;48.490;9.688;2023-04-01T01:49:53;9.70;62.10
45044;DHT22;30784;48.490;9.688;2023-04-01T01:52:21;9.70;62.10
45044;DHT22;30784;48.490;9.688;2023-04-01T01:54:57;9.70;62.00
45044;DHT22;30784;48.490;9.688;2023-04-01T01:57:34;9.70;61.90
45044;DHT22;30784;48.490;9.688;2023-04-01T02:00:07;9.70;62.00
45044;DHT22;30784;48.490;9.688;2023-04-01T02:02:40;9.70;62.10
45044;DHT22;30784;48.490;9.688;2023-04-01T02:05:06;9.70;62.20
45044;DHT22;30784;48.490;9.688;2023-04-01T02:07:35;9.70;62.10
45044;DHT22;30784;48.490;9.688;2023-04-01T02:10:03;9.70;62.10
45044;DHT22;30784;48.490;9.688;2023-04-01T02:12:29;9.70;62.20
45044;DHT22;30784;48.490;9.688;2023-04-01T02:15:04;9.70;62.10
45044;DHT22;30784;48.490;9.688;2023-04-01T02:17:32;9.70;61.90
45044;DHT22;30784;48.490;9.688;2023-04-01T02:20:06;9.70;62.00
45044;DHT22;30784;48.490;9.688;2023-04-01T02:22:40;9.70;61.90
45044;DHT22;30784;48.490;9.688;2023-04-01T02:25:12;9.70;61.90
45044;DHT22;30784;48.490;9.688;2023-04-01T02:27:39;9.70;62.00
45044;DHT22;30784;48.490;9.688;2023-04-01T02:30:06;9.70;62.00
45044;DHT22;30784;48.490;9.688;2023-04-01T02:32:33;9.70;61.90
45044;DHT22;30784;48.490;9.688;2023-04-01T02:34:59;9.70;61.80
45044;DHT22;30784;48.490;9.688;2023-04-01T02:37:28;9.70;61.90
45044;DHT22;30784;48.490;9.688;2023-04-01T02:39:54;9.70;61.90
45044;DHT22;30784;48.490;9.688;2023-04-01T02:42:20;9.70;61.80
45044;DHT22;30784;48.490;9.688;2023-04-01T02:44:45;9.70;61.70
45044;DHT22;30784;48.490;9.688;2023-04-01T02:47:11;9.70;61.60
45044;DHT22;30784;48.490;9.688;2023-04-01T02:49:36;9.70;61.50
45044;DHT22;30784;48.490;9.688;2023-04-01T02:52:02;9.70;61.50
45044;DHT22;30784;48.490;9.688;2023-04-01T02:54:27;9.70;61.50
45044;DHT22;30784;48.490;9.688;2023-04-01T02:56:53;9.70;61.50
45044;DHT22;30784;48.490;9.688;2023-04-01T02:59:18;9.70;61.50
45044;DHT22;30784;48.490;9.688;2023-04-01T03:01:44;9.70;61.60
45044;DHT22;30784;48.490;9.688;2023-04-01T03:04:09;9.70;61.60
45044;DHT22;30784;48.490;9.688;2023-04-01T03:06:35;9.70;61.60
45044;DHT22;30784;48.490;9.688;2023-04-01T03:09:00;9.70;61.70
45044;DHT22;30784;48.490;9.688;2023-04-01T03:11:26;9.70;61.60
45044;DHT22;30784;48.490;9.688;2023-04-01T03:13:51;9.70;61.70
45044;DHT22;30784;48.490;9.688;2023-04-01T03:16:17;9.70;61.60
45044;DHT22;30784;48.490;9.688;2023-04-01T03:18:42;9.70;61.40
45044;DHT22;30784;48.490;9.688;2023-04-01T03:21:19;9.70;61.60
45044;DHT22;30784;48.490;9.688;2023-04-01T03:23:45;9.70;61.50
45044;DHT22;30784;48.490;9.688;2023-04-01T03:26:11;9.70;61.40
45044;DHT22;30784;48.490;9.688;2023-04-01T03:28:36;9.60;61.30
45044;DHT22;30784;48.490;9.688;2023-04-01T03:31:02;9.60;61.30
45044;DHT22;30784;48.490;9.688;2023-04-01T03:33:30;9.60;61.30
45044;DHT22;30784;48.490;9.688;2023-04-01T03:35:56;9.60;61.40
45044;DHT22;30784;48.490;9.688;2023-04-01T03:38:21;9.60;61.10
45044;DHT22;30784;48.490;9.688;2023-04-01T03:40:47;9.60;61.00
45044;DHT22;30784;48.490;9.688;2023-04-01T03:43:12;9.50;61.00
45044;DHT22;30784;48.490;9.688;2023-04-01T03:45:49;9.50;60.90
45044;DHT22;30784;48.490;9.688;2023-04-01T03:48:15;9.50;60.70
45044;DHT22;30784;48.490;9.688;2023-04-01T03:50:41;9.40;60.80
45044;DHT22;30784;48.490;9.688;2023-04-01T03:53:07;9.40;60.90
45044;DHT22;30784;48.490;9.688;2023-04-01T03:55:33;9.40;61.10
45044;DHT22;30784;48.490;9.688;2023-04-01T03:57:59;9.40;61.00
45044;DHT22;30784;48.490;9.688;2023-04-01T04:00:24;9.40;60.90
45044;DHT22;30784;48.490;9.688;2023-04-01T04:02:50;9.40;60.90
45044;DHT22;30784;48.490;9.688;2023-04-01T04:05:16;9.40;60.90
45044;DHT22;30784;48.490;9.688;2023-04-01T04:07:41;9.40;61.00
45044;DHT22;30784;48.490;9.688;2023-04-01T04:10:07;9.30;60.90
45044;DHT22;30784;48.490;9.688;2023-04-01T04:12:33;9.30;60.90
45044;DHT22;30784;48.490;9.688;2023-04-01T04:14:58;9.30;60.90
45044;DHT22;30784;48.490;9.688;2023-04-01T04:17:24;9.20;60.80
45044;DHT22;30784;48.490;9.688;2023-04-01T04:19:50;9.20;60.70
45044;DHT22;30784;48.490;9.688;2023-04-01T04:22:16;9.20;60.80
45044;DHT22;30784;48.490;9.688;2023-04-01T04:24:41;9.20;60.70
45044;DHT22;30784;48.490;9.688;2023-04-01T04:27:07;9.10;60.60
45044;DHT22;30784;48.490;9.688;2023-04-01T04:29:32;9.10;60.50
45044;DHT22;30784;48.490;9.688;2023-04-01T04:31:58;9.10;60.60
45044;DHT22;30784;48.490;9.688;2023-04-01T04:34:23;9.00;60.60
45044;DHT22;30784;48.490;9.688;2023-04-01T04:36:49;9.00;60.60
45044;DHT22;30784;48.490;9.688;2023-04-01T04:39:15;9.00;60.60
45044;DHT22;30784;48.490;9.688;2023-04-01T04:41:40;8.90;60.70
45044;DHT22;30784;48.490;9.688;2023-04-01T04:44:06;8.90;60.70
45044;DHT22;30784;48.490;9.688;2023-04-01T04:46:32;8.90;61.30
45044;DHT22;30784;48.490;9.688;2023-04-01T04:48:58;8.90;61.30
45044;DHT22;30784;48.490;9.688;2023-04-01T04:51:24;8.80;60.80
45044;DHT22;30784;48.490;9.688;2023-04-01T04:53:49;8.80;60.90
45044;DHT22;30784;48.490;9.688;2023-04-01T04:56:22;8.80;60.90
45044;DHT22;30784;48.490;9.688;2023-04-01T04:58:53;8.70;60.90
45044;DHT22;30784;48.490;9.688;2023-04-01T05:01:18;8.70;61.00
45044;DHT22;30784;48.490;9.688;2023-04-01T05:03:44;8.70;61.20
45044;DHT22;30784;48.490;9.688;2023-04-01T05:06:12;8.70;61.30
45044;DHT22;30784;48.490;9.688;2023-04-01T05:08:39;8.60;61.30
45044;DHT22;30784;48.490;9.688;2023-04-01T05:11:07;8.60;61.40
45044;DHT22;30784;48.490;9.688;2023-04-01T05:13:35;8.70;61.60
45044;DHT22;30784;48.490;9.688;2023-04-01T05:16:01;8.60;61.70
45044;DHT22;30784;48.490;9.688;2023-04-01T05:18:27;8.60;61.80
45044;DHT22;30784;48.490;9.688;2023-04-01T05:20:54;8.60;62.00
45044;DHT22;30784;48.490;9.688;2023-04-01T05:23:21;8.60;62.20
45044;DHT22;30784;48.490;9.688;2023-04-01T05:25:50;8.60;62.30
45044;DHT22;30784;48.490;9.688;2023-04-01T05:28:19;8.60;62.70
45044;DHT22;30784;48.490;9.688;2023-04-01T05:30:45;8.60;62.80
45044;DHT22;30784;48.490;9.688;2023-04-01T05:33:12;8.60;62.80
45044;DHT22;30784;48.490;9.688;2023-04-01T05:35:38;8.60;63.30
45044;DHT22;30784;48.490;9.688;2023-04-01T05:38:04;8.70;63.10
45044;DHT22;30784;48.490;9.688;2023-04-01T05:40:31;8.70;63.20
45044;DHT22;30784;48.490;9.688;2023-04-01T05:42:56;8.70;63.20
45044;DHT22;30784;48.490;9.688;2023-04-01T05:45:22;8.70;63.30
45044;DHT22;30784;48.490;9.688;2023-04-01T05:47:47;8.80;63.30
45044;DHT22;30784;48.490;9.688;2023-04-01T05:50:13;8.80;63.40
45044;DHT22;30784;48.490;9.688;2023-04-01T05:52:39;8.80;63.30
45044;DHT22;30784;48.490;9.688;2023-04-01T05:55:05;8.80;63.30
45044;DHT22;30784;48.490;9.688;2023-04-01T05:57:31;8.90;63.40
45044;DHT22;30784;48.490;9.688;2023-04-01T05:59:56;8.90;63.50
45044;DHT22;30784;48.490;9.688;2023-04-01T06:02:22;8.90;63.40
45044;DHT22;30784;48.490;9.688;2023-04-01T06:04:48;9.00;63.30
45044;DHT22;30784;48.490;9.688;2023-04-01T06:07:17;9.00;63.20
45044;DHT22;30784;48.490;9.688;2023-04-01T06:09:44;9.00;63.10
45044;DHT22;30784;48.490;9.688;2023-04-01T06:17:41;9.10;62.70
45044;DHT22;30784;48.490;9.688;2023-04-01T06:20:51;9.20;62.80
45044;DHT22;30784;48.490;9.688;2023-04-01T06:23:41;9.20;62.80
45044;DHT22;30784;48.490;9.688;2023-04-01T06:28:58;9.30;62.60
45044;DHT22;30784;48.490;9.688;2023-04-01T06:31:26;9.30;62.70
45044;DHT22;30784;48.490;9.688;2023-04-01T06:37:05;9.40;62.80
45044;DHT22;30784;48.490;9.688;2023-04-01T06:48:21;9.80;62.20
45044;DHT22;30784;48.490;9.688;2023-04-01T06:51:11;9.80;62.20
45044;DHT22;30784;48.490;9.688;2023-04-01T06:54:03;10.00;62.30
45044;DHT22;30784;48.490;9.688;2023-04-01T06:56:30;10.00;62.10
45044;DHT22;30784;48.490;9.688;2023-04-01T06:59:16;10.20;62.00
45044;DHT22;30784;48.490;9.688;2023-04-01T07:01:47;10.20;62.00
45044;DHT22;30784;48.490;9.688;2023-04-01T07:04:25;10.30;61.30
45044;DHT22;30784;48.490;9.688;2023-04-01T07:06:58;10.40;61.20
45044;DHT22;30784;48.490;9.688;2023-04-01T07:09:51;10.40;60.80
45044;DHT22;30784;48.490;9.688;2023-04-01T07:14:56;10.50;60.60
45044;DHT22;30784;48.490;9.688;2023-04-01T07:17:26;10.50;60.40
45044;DHT22;30784;48.490;9.688;2023-04-01T07:20:13;10.50;60.30
45044;DHT22;30784;48.490;9.688;2023-04-01T07:22:46;10.60;60.30
45044;DHT22;30784;48.490;9.688;2023-04-01T07:25:18;10.60;60.00
45044;DHT22;30784;48.490;9.688;2023-04-01T07:27:46;10.60;59.80
45044;DHT22;30784;48.490;9.688;2023-04-01T07:30:20;10.60;59.70
45044;DHT22;30784;48.490;9.688;2023-04-01T07:35:30;10.60;59.60
45044;DHT22;30784;48.490;9.688;2023-04-01T07:46:21;10.60;59.40
45044;DHT22;30784;48.490;9.688;2023-04-01T07:51:41;10.60;59.80
45044;DHT22;30784;48.490;9.688;2023-04-01T07:54:22;10.60;59.50
45044;DHT22;30784;48.490;9.688;2023-04-01T07:57:08;10.60;59.60
45044;DHT22;30784;48.490;9.688;2023-04-01T07:59:51;10.50;59.60
45044;DHT22;30784;48.490;9.688;2023-04-01T08:02:44;10.60;59.60
45044;DHT22;30784;48.490;9.688;2023-04-01T08:05:29;10.50;59.50
45044;DHT22;30784;48.490;9.688;2023-04-01T08:10:52;10.50;59.60
45044;DHT22;30784;48.490;9.688;2023-04-01T08:16:53;10.50;59.80
45044;DHT22;30784;48.490;9.688;2023-04-01T08:22:30;10.50;59.90
45044;DHT22;30784;48.490;9.688;2023-04-01T08:25:01;10.50;59.70
45044;DHT22;30784;48.490;9.688;2023-04-01T08:27:36;10.40;59.70
45044;DHT22;30784;48.490;9.688;2023-04-01T08:30:23;10.40;59.70
45044;DHT22;30784;48.490;9.688;2023-04-01T08:33:05;10.40;59.80
45044;DHT22;30784;48.490;9.688;2023-04-01T08:38:19;10.40;59.90
45044;DHT22;30784;48.490;9.688;2023-04-01T08:40:57;10.50;60.00
45044;DHT22;30784;48.490;9.688;2023-04-01T08:46:08;10.50;60.00
45044;DHT22;30784;48.490;9.688;2023-04-01T08:59:55;10.50;60.00
45044;DHT22;30784;48.490;9.688;2023-04-01T09:02:31;10.50;60.00
45044;DHT22;30784;48.490;9.688;2023-04-01T09:05:22;10.50;60.10
45044;DHT22;30784;48.490;9.688;2023-04-01T09:16:42;10.40;60.00
45044;DHT22;30784;48.490;9.688;2023-04-01T09:22:07;10.40;60.30
45044;DHT22;30784;48.490;9.688;2023-04-01T09:37:18;10.40;60.60
45044;DHT22;30784;48.490;9.688;2023-04-01T09:40:09;10.40;60.40
45044;DHT22;30784;48.490;9.688;2023-04-01T09:45:47;10.30;60.60
45044;DHT22;30784;48.490;9.688;2023-04-01T09:54:13;10.20;60.60
45044;DHT22;30784;48.490;9.688;2023-04-01T09:57:02;10.20;60.70
45044;DHT22;30784;48.490;9.688;2023-04-01T10:08:38;10.10;61.70
45044;DHT22;30784;48.490;9.688;2023-04-01T10:23:17;10.20;61.90
45044;DHT22;30784;48.490;9.688;2023-04-01T10:32:27;10.20;62.10
45044;DHT22;30784;48.490;9.688;2023-04-01T10:37:45;10.30;62.50
45044;DHT22;30784;48.490;9.688;2023-04-01T10:40:30;10.30;62.30
45044;DHT22;30784;48.490;9.688;2023-04-01T10:54:13;10.50;62.40
45044;DHT22;30784;48.490;9.688;2023-04-01T11:15:14;10.40;61.70
45044;DHT22;30784;48.490;9.688;2023-04-01T11:20:41;10.40;62.20
45044;DHT22;30784;48.490;9.688;2023-04-01T11:26:22;10.40;62.00
45044;DHT22;30784;48.490;9.688;2023-04-01T11:29:18;10.40;62.10
45044;DHT22;30784;48.490;9.688;2023-04-01T11:31:58;10.40;62.00
45044;DHT22;30784;48.490;9.688;2023-04-01T11:37:37;10.40;62.30
45044;DHT22;30784;48.490;9.688;2023-04-01T11:48:44;10.40;63.00
45044;DHT22;30784;48.490;9.688;2023-04-01T11:57:31;10.50;63.30
45044;DHT22;30784;48.490;9.688;2023-04-01T12:05:58;10.70;63.30
45044;DHT22;30784;48.490;9.688;2023-04-01T12:08:45;10.70;62.80
45044;DHT22;30784;48.490;9.688;2023-04-01T12:11:21;10.80;62.90
45044;DHT22;30784;48.490;9.688;2023-04-01T12:19:21;10.80;62.80
45044;DHT22;30784;48.490;9.688;2023-04-01T12:22:02;10.90;62.80
45044;DHT22;30784;48.490;9.688;2023-04-01T12:30:28;10.90;62.40
45044;DHT22;30784;48.490;9.688;2023-04-01T12:36:18;10.90;62.20
45044;DHT22;30784;48.490;9.688;2023-04-01T12:41:29;10.90;62.50
45044;DHT22;30784;48.490;9.688;2023-04-01T12:49:31;11.00;62.40
45044;DHT22;30784;48.490;9.688;2023-04-01T12:57:12;11.00;62.40
45044;DHT22;30784;48.490;9.688;2023-04-01T12:59:48;11.10;62.50
45044;DHT22;30784;48.490;9.688;2023-04-01T13:07:52;11.10;62.60
45044;DHT22;30784;48.490;9.688;2023-04-01T13:10:25;11.10;62.60
45044;DHT22;30784;48.490;9.688;2023-04-01T13:13:06;11.10;62.80
45044;DHT22;30784;48.490;9.688;2023-04-01T13:18:41;11.20;62.40
45044;DHT22;30784;48.490;9.688;2023-04-01T13:24:00;11.20;62.20
45044;DHT22;30784;48.490;9.688;2023-04-01T13:29:57;11.30;62.30
45044;DHT22;30784;48.490;9.688;2023-04-01T13:35:24;11.30;61.80
45044;DHT22;30784;48.490;9.688;2023-04-01T13:41:18;11.30;61.80
45044;DHT22;30784;48.490;9.688;2023-04-01T13:43:51;11.30;61.60
45044;DHT22;30784;48.490;9.688;2023-04-01T13:49:07;11.30;61.40
45044;DHT22;30784;48.490;9.688;2023-04-01T13:54:50;11.30;61.30
45044;DHT22;30784;48.490;9.688;2023-04-01T13:57:59;11.30;61.10
45044;DHT22;30784;48.490;9.688;2023-04-01T14:03:37;11.30;60.20
45044;DHT22;30784;48.490;9.688;2023-04-01T14:06:27;11.40;60.40
45044;DHT22;30784;48.490;9.688;2023-04-01T14:09:01;11.40;60.40
45044;DHT22;30784;48.490;9.688;2023-04-01T14:14:32;11.40;59.80
45044;DHT22;30784;48.490;9.688;2023-04-01T14:17:22;11.40;59.60
45044;DHT22;30784;48.490;9.688;2023-04-01T14:31:30;11.40;58.80
45044;DHT22;30784;48.490;9.688;2023-04-01T14:35:05;11.40;58.00
45044;DHT22;30784;48.490;9.688;2023-04-01T14:40:28;11.40;58.20
45044;DHT22;30784;48.490;9.688;2023-04-01T14:46:00;11.30;57.30
45044;DHT22;30784;48.490;9.688;2023-04-01T14:53:51;11.30;57.70
45044;DHT22;30784;48.490;9.688;2023-04-01T14:56:39;11.30;57.50
45044;DHT22;30784;48.490;9.688;2023-04-01T14:59:10;11.30;57.80
45044;DHT22;30784;48.490;9.688;2023-04-01T15:09:41;11.40;57.10
45044;DHT22;30784;48.490;9.688;2023-04-01T15:12:30;11.40;57.00
45044;DHT22;30784;48.490;9.688;2023-04-01T15:15:22;11.40;57.00
45044;DHT22;30784;48.490;9.688;2023-04-01T15:17:53;11.40;56.40
45044;DHT22;30784;48.490;9.688;2023-04-01T15:23:31;11.40;56.20
45044;DHT22;30784;48.490;9.688;2023-04-01T15:26:50;11.40;56.60
45044;DHT22;30784;48.490;9.688;2023-04-01T15:32:02;11.40;56.00
45044;DHT22;30784;48.490;9.688;2023-04-01T15:34:30;11.40;56.00
45044;DHT22;30784;48.490;9.688;2023-04-01T15:37:10;11.40;55.90
45044;DHT22;30784;48.490;9.688;2023-04-01T15:45:38;11.40;56.20
45044;DHT22;30784;48.490;9.688;2023-04-01T15:49:01;11.40;55.70
45044;DHT22;30784;48.490;9.688;2023-04-01T16:10:44;11.40;56.00
45044;DHT22;30784;48.490;9.688;2023-04-01T16:13:44;11.40;56.10
45044;DHT22;30784;48.490;9.688;2023-04-01T16:27:54;11.40;56.30
45044;DHT22;30784;48.490;9.688;2023-04-01T16:33:04;11.30;56.50
45044;DHT22;30784;48.490;9.688;2023-04-01T16:41:16;11.30;56.90
45044;DHT22;30784;48.490;9.688;2023-04-01T16:43:51;11.30;56.70
45044;DHT22;30784;48.490;9.688;2023-04-01T16:46:43;11.30;56.80
45044;DHT22;30784;48.490;9.688;2023-04-01T16:54:47;11.20;57.00
45044;DHT22;30784;48.490;9.688;2023-04-01T16:59:37;11.20;57.00
45044;DHT22;30784;48.490;9.688;2023-04-01T17:05:14;11.20;57.20
45044;DHT22;30784;48.490;9.688;2023-04-01T17:07:57;11.20;57.10
45044;DHT22;30784;48.490;9.688;2023-04-01T17:10:50;11.20;56.90
45044;DHT22;30784;48.490;9.688;2023-04-01T17:13:46;11.10;56.90
45044;DHT22;30784;48.490;9.688;2023-04-01T17:16:29;11.10;56.90
45044;DHT22;30784;48.490;9.688;2023-04-01T17:19:06;11.10;56.90
45044;DHT22;30784;48.490;9.688;2023-04-01T17:27:28;11.10;56.80
45044;DHT22;30784;48.490;9.688;2023-04-01T17:30:08;11.10;56.70
45044;DHT22;30784;48.490;9.688;2023-04-01T17:35:31;11.10;56.80
45044;DHT22;30784;48.490;9.688;2023-04-01T17:46:34;11.10;56.40
45044;DHT22;30784;48.490;9.688;2023-04-01T17:49:26;11.00;56.30
45044;DHT22;30784;48.490;9.688;2023-04-01T17:52:16;11.00;56.20
45044;DHT22;30784;48.490;9.688;2023-04-01T17:55:30;11.00;56.10
45044;DHT22;30784;48.490;9.688;2023-04-01T18:06:19;11.00;56.30
45044;DHT22;30784;48.490;9.688;2023-04-01T18:08:59;11.00;56.30
45044;DHT22;30784;48.490;9.688;2023-04-01T18:17:27;10.90;56.50
45044;DHT22;30784;48.490;9.688;2023-04-01T18:28:17;10.90;56.40
45044;DHT22;30784;48.490;9.688;2023-04-01T18:30:51;10.90;56.50
45044;DHT22;30784;48.490;9.688;2023-04-01T18:33:42;10.90;56.60
45044;DHT22;30784;48.490;9.688;2023-04-01T18:39:35;10.90;56.60
45044;DHT22;30784;48.490;9.688;2023-04-01T18:42:30;10.90;56.50
45044;DHT22;30784;48.490;9.688;2023-04-01T18:45:30;10.90;56.60
45044;DHT22;30784;48.490;9.688;2023-04-01T18:48:15;10.90;56.60
45044;DHT22;30784;48.490;9.688;2023-04-01T18:50:50;10.90;56.50
45044;DHT22;30784;48.490;9.688;2023-04-01T18:53:45;10.90;56.60
45044;DHT22;30784;48.490;9.688;2023-04-01T18:56:26;10.80;56.50
45044;DHT22;30784;48.490;9.688;2023-04-01T19:10:14;10.80;56.70
45044;DHT22;30784;48.490;9.688;2023-04-01T19:29:58;10.80;57.10
45044;DHT22;30784;48.490;9.688;2023-04-01T19:35:29;10.80;57.10
45044;DHT22;30784;48.490;9.688;2023-04-01T19:38:04;10.80;57.30
45044;DHT22;30784;48.490;9.688;2023-04-01T19:43:44;10.80;57.40
45044;DHT22;30784;48.490;9.688;2023-04-01T19:46:29;10.70;57.30
45044;DHT22;30784;48.490;9.688;2023-04-01T19:51:37;10.70;57.80
45044;DHT22;30784;48.490;9.688;2023-04-01T20:04:34;10.60;58.00
45044;DHT22;30784;48.490;9.688;2023-04-01T20:10:49;10.60;58.00
45044;DHT22;30784;48.490;9.688;2023-04-01T20:15:37;10.60;57.90
45044;DHT22;30784;48.490;9.688;2023-04-01T20:18:25;10.60;58.00
45044;DHT22;30784;48.490;9.688;2023-04-01T20:21:01;10.60;57.80
45044;DHT22;30784;48.490;9.688;2023-04-01T20:23:59;10.50;58.00
45044;DHT22;30784;48.490;9.688;2023-04-01T20:26:38;10.50;57.90
45044;DHT22;30784;48.490;9.688;2023-04-01T20:32:12;10.40;57.80
45044;DHT22;30784;48.490;9.688;2023-04-01T20:34:50;10.40;58.00
45044;DHT22;30784;48.490;9.688;2023-04-01T20:37:29;10.40;58.00
45044;DHT22;30784;48.490;9.688;2023-04-01T20:40:17;10.30;58.00
45044;DHT22;30784;48.490;9.688;2023-04-01T20:48:22;10.30;58.00
45044;DHT22;30784;48.490;9.688;2023-04-01T20:51:15;10.20;57.80
45044;DHT22;30784;48.490;9.688;2023-04-01T20:54:11;10.20;57.80
45044;DHT22;30784;48.490;9.688;2023-04-01T20:57:06;10.20;57.90
45044;DHT22;30784;48.490;9.688;2023-04-01T20:59:56;10.20;57.80
45044;DHT22;30784;48.490;9.688;2023-04-01T21:03:45;10.10;57.80
45044;DHT22;30784;48.490;9.688;2023-04-01T21:27:34;10.00;57.90
45044;DHT22;30784;48.490;9.688;2023-04-01T21:33:07;10.00;57.90
45044;DHT22;30784;48.490;9.688;2023-04-01T21:41:58;9.90;58.00
45044;DHT22;30784;48.490;9.688;2023-04-01T21:44:58;9.90;57.90
45044;DHT22;30784;48.490;9.688;2023-04-01T21:50:58;9.90;57.80
45044;DHT22;30784;48.490;9.688;2023-04-01T22:04:34;9.80;57.90
45044;DHT22;30784;48.490;9.688;2023-04-01T22:07:24;9.80;58.00
45044;DHT22;30784;48.490;9.688;2023-04-01T22:12:24;9.80;58.20
45044;DHT22;30784;48.490;9.688;2023-04-01T22:15:17;9.70;58.20
45044;DHT22;30784;48.490;9.688;2023-04-01T22:17:52;9.70;58.30
45044;DHT22;30784;48.490;9.688;2023-04-01T22:20:50;9.70;58.30
45044;DHT22;30784;48.490;9.688;2023-04-01T22:23:44;9.70;58.30
45044;DHT22;30784;48.490;9.688;2023-04-01T22:32:08;9.60;58.60
45044;DHT22;30784;48.490;9.688;2023-04-01T22:35:10;9.70;58.70
45044;DHT22;30784;48.490;9.688;2023-04-01T22:38:14;9.70;58.70
45044;DHT22;30784;48.490;9.688;2023-04-01T22:40:54;9.70;58.80
45044;DHT22;30784;48.490;9.688;2023-04-01T22:43:36;9.70;58.80
45044;DHT22;30784;48.490;9.688;2023-04-01T22:46:20;9.70;58.80
45044;DHT22;30784;48.490;9.688;2023-04-01T22:52:01;9.70;58.90
45044;DHT22;30784;48.490;9.688;2023-04-01T22:54:43;9.70;58.90
45044;DHT22;30784;48.490;9.688;2023-04-01T23:02:36;9.70;59.10
45044;DHT22;30784;48.490;9.688;2023-04-01T23:05:04;9.70;59.10
45044;DHT22;30784;48.490;9.688;2023-04-01T23:12:47;9.70;59.10
45044;DHT22;30784;48.490;9.688;2023-04-01T23:15:15;9.70;59.10
45044;DHT22;30784;48.490;9.688;2023-04-01T23:18:04;9.70;59.10
45044;DHT22;30784;48.490;9.688;2023-04-01T23:20:44;9.70;59.00
45044;DHT22;30784;48.490;9.688;2023-04-01T23:23:29;9.70;59.00
45044;DHT22;30784;48.490;9.688;2023-04-01T23:28:47;9.70;58.90
45044;DHT22;30784;48.490;9.688;2023-04-01T23:31:29;9.70;58.80
45044;DHT22;30784;48.490;9.688;2023-04-01T23:36:52;9.70;58.70
45044;DHT22;30784;48.490;9.688;2023-04-01T23:39:39;9.70;58.80
45044;DHT22;30784;48.490;9.688;2023-04-01T23:42:25;9.70;58.80
45044;DHT22;30784;48.490;9.688;2023-04-01T23:44:58;9.70;58.80
45044;DHT22;30784;48.490;9.688;2023-04-01T23:47:32;9.70;58.90
45044;DHT22;30784;48.490;9.688;2023-04-01T23:50:18;9.70;59.00
45044;DHT22;30784;48.490;9.688;2023-04-01T23:52:47;9.60;58.90
45044;DHT22;30784;48.490;9.688;2023-04-01T23:55:37;9.60;59.00
